Plain, Washington
Current Conditions -  °F | °C
As of 11:55 AM on Wednesday 17 Dec 2014 (Local Time) from KEAT Reporting Station
Haze Haze  
Wind Chill: 34°   Ceiling: 1000
Heat Index: 34°   Visibility: 4mi
Dew Point: 32°   Wind: 3mph
Humidity: 92%   Direction: 310°NW
Pressure: 29.94"   Gusts: NA
Location:  47.7866°N, 120.856°W
Report Text: KEAT 171955Z AUTO 31003KT 4SM BR FEW004 BKN010 OVC022 01/00 A2994 RMK AO2 SNE09 SLP148 P0000 T00110000
Loading
Personal Weather Stations






























Interactive Weather Map New forecast layout! Learn more

10-Day Weather Forecast

Advertisements
Track Severe Weather on mobile